sensor_id;sensor_type;location;lat;lon;timestamp;P1;durP1;ratioP1;P2;durP2;ratioP2
73650;SDS011;61944;52.538;6.108;2022-08-21T00:00:06;17.65;;;7.88;;
73650;SDS011;61944;52.538;6.108;2022-08-21T00:02:31;11.60;;;7.57;;
73650;SDS011;61944;52.538;6.108;2022-08-21T00:04:57;18.70;;;8.05;;
73650;SDS011;61944;52.538;6.108;2022-08-21T00:07:22;16.35;;;7.28;;
73650;SDS011;61944;52.538;6.108;2022-08-21T00:09:47;14.82;;;7.45;;
73650;SDS011;61944;52.538;6.108;2022-08-21T00:12:16;16.48;;;7.10;;
73650;SDS011;61944;52.538;6.108;2022-08-21T00:14:41;13.15;;;8.55;;
73650;SDS011;61944;52.538;6.108;2022-08-21T00:17:06;14.70;;;7.32;;
73650;SDS011;61944;52.538;6.108;2022-08-21T00:19:32;17.20;;;7.65;;
73650;SDS011;61944;52.538;6.108;2022-08-21T00:21:57;15.43;;;7.25;;
73650;SDS011;61944;52.538;6.108;2022-08-21T00:24:23;12.82;;;7.95;;
73650;SDS011;61944;52.538;6.108;2022-08-21T00:26:49;16.58;;;7.75;;
73650;SDS011;61944;52.538;6.108;2022-08-21T00:29:14;13.05;;;7.78;;
73650;SDS011;61944;52.538;6.108;2022-08-21T00:31:40;16.90;;;7.22;;
73650;SDS011;61944;52.538;6.108;2022-08-21T00:34:06;9.88;;;6.68;;
73650;SDS011;61944;52.538;6.108;2022-08-21T00:36:32;15.60;;;7.53;;
73650;SDS011;61944;52.538;6.108;2022-08-21T00:38:58;12.80;;;6.75;;
73650;SDS011;61944;52.538;6.108;2022-08-21T00:41:23;17.40;;;7.43;;
73650;SDS011;61944;52.538;6.108;2022-08-21T00:43:49;16.63;;;7.72;;
73650;SDS011;61944;52.538;6.108;2022-08-21T00:46:15;12.18;;;7.45;;
73650;SDS011;61944;52.538;6.108;2022-08-21T00:48:40;13.45;;;6.97;;
73650;SDS011;61944;52.538;6.108;2022-08-21T00:54:03;14.15;;;6.60;;
73650;SDS011;61944;52.538;6.108;2022-08-21T00:56:29;14.40;;;7.05;;
73650;SDS011;61944;52.538;6.108;2022-08-21T00:58:54;14.80;;;6.80;;
73650;SDS011;61944;52.538;6.108;2022-08-21T01:01:23;15.23;;;7.63;;
73650;SDS011;61944;52.538;6.108;2022-08-21T01:03:49;13.73;;;7.30;;
73650;SDS011;61944;52.538;6.108;2022-08-21T01:06:14;15.07;;;8.18;;
73650;SDS011;61944;52.538;6.108;2022-08-21T01:08:39;14.50;;;7.13;;
73650;SDS011;61944;52.538;6.108;2022-08-21T01:11:05;12.20;;;7.00;;
73650;SDS011;61944;52.538;6.108;2022-08-21T01:13:31;21.27;;;9.05;;
73650;SDS011;61944;52.538;6.108;2022-08-21T01:16:00;15.05;;;7.47;;
73650;SDS011;61944;52.538;6.108;2022-08-21T01:18:28;16.77;;;7.18;;
73650;SDS011;61944;52.538;6.108;2022-08-21T01:21:04;19.85;;;7.82;;
73650;SDS011;61944;52.538;6.108;2022-08-21T01:23:30;16.30;;;7.88;;
73650;SDS011;61944;52.538;6.108;2022-08-21T01:25:55;15.48;;;7.55;;
73650;SDS011;61944;52.538;6.108;2022-08-21T01:28:21;17.30;;;8.27;;
73650;SDS011;61944;52.538;6.108;2022-08-21T01:30:47;17.58;;;7.70;;
73650;SDS011;61944;52.538;6.108;2022-08-21T01:33:13;11.50;;;7.38;;
73650;SDS011;61944;52.538;6.108;2022-08-21T01:35:38;16.30;;;7.60;;
73650;SDS011;61944;52.538;6.108;2022-08-21T01:38:03;11.98;;;7.18;;
73650;SDS011;61944;52.538;6.108;2022-08-21T01:40:29;25.00;;;8.15;;
73650;SDS011;61944;52.538;6.108;2022-08-21T01:42:54;17.05;;;7.95;;
73650;SDS011;61944;52.538;6.108;2022-08-21T01:45:20;14.45;;;7.60;;
73650;SDS011;61944;52.538;6.108;2022-08-21T01:47:45;22.08;;;8.93;;
73650;SDS011;61944;52.538;6.108;2022-08-21T01:50:12;14.50;;;7.45;;
73650;SDS011;61944;52.538;6.108;2022-08-21T01:52:37;19.95;;;7.63;;
73650;SDS011;61944;52.538;6.108;2022-08-21T01:55:03;10.73;;;6.90;;
73650;SDS011;61944;52.538;6.108;2022-08-21T01:57:29;18.80;;;7.30;;
73650;SDS011;61944;52.538;6.108;2022-08-21T01:59:54;19.80;;;8.10;;
73650;SDS011;61944;52.538;6.108;2022-08-21T02:02:19;14.45;;;6.40;;
73650;SDS011;61944;52.538;6.108;2022-08-21T02:04:48;19.52;;;8.18;;
73650;SDS011;61944;52.538;6.108;2022-08-21T02:07:13;17.45;;;6.80;;
73650;SDS011;61944;52.538;6.108;2022-08-21T02:09:38;19.10;;;7.53;;
73650;SDS011;61944;52.538;6.108;2022-08-21T02:12:03;15.57;;;6.65;;
73650;SDS011;61944;52.538;6.108;2022-08-21T02:14:29;20.85;;;6.88;;
73650;SDS011;61944;52.538;6.108;2022-08-21T02:16:54;15.37;;;5.60;;
73650;SDS011;61944;52.538;6.108;2022-08-21T02:19:19;24.08;;;7.40;;
73650;SDS011;61944;52.538;6.108;2022-08-21T02:21:44;17.23;;;7.50;;
73650;SDS011;61944;52.538;6.108;2022-08-21T02:24:10;16.38;;;5.82;;
73650;SDS011;61944;52.538;6.108;2022-08-21T02:26:36;17.90;;;8.18;;
73650;SDS011;61944;52.538;6.108;2022-08-21T02:29:02;14.32;;;6.90;;
73650;SDS011;61944;52.538;6.108;2022-08-21T02:31:28;23.10;;;6.60;;
73650;SDS011;61944;52.538;6.108;2022-08-21T02:33:53;14.20;;;6.22;;
73650;SDS011;61944;52.538;6.108;2022-08-21T02:36:19;14.27;;;6.43;;
73650;SDS011;61944;52.538;6.108;2022-08-21T02:38:44;12.13;;;6.20;;
73650;SDS011;61944;52.538;6.108;2022-08-21T02:41:14;12.27;;;6.32;;
73650;SDS011;61944;52.538;6.108;2022-08-21T02:43:43;16.05;;;6.72;;
73650;SDS011;61944;52.538;6.108;2022-08-21T02:46:09;18.90;;;6.20;;
73650;SDS011;61944;52.538;6.108;2022-08-21T02:48:34;13.82;;;6.65;;
73650;SDS011;61944;52.538;6.108;2022-08-21T02:51:01;17.75;;;7.20;;
73650;SDS011;61944;52.538;6.108;2022-08-21T02:53:27;16.48;;;7.32;;
73650;SDS011;61944;52.538;6.108;2022-08-21T02:55:53;12.98;;;5.93;;
73650;SDS011;61944;52.538;6.108;2022-08-21T02:58:20;17.02;;;6.97;;
73650;SDS011;61944;52.538;6.108;2022-08-21T03:00:46;16.90;;;6.38;;
73650;SDS011;61944;52.538;6.108;2022-08-21T03:03:14;15.90;;;6.88;;
73650;SDS011;61944;52.538;6.108;2022-08-21T03:05:39;15.27;;;6.32;;
73650;SDS011;61944;52.538;6.108;2022-08-21T03:08:07;12.23;;;6.43;;
73650;SDS011;61944;52.538;6.108;2022-08-21T03:10:36;12.15;;;6.18;;
73650;SDS011;61944;52.538;6.108;2022-08-21T03:13:05;10.82;;;6.22;;
73650;SDS011;61944;52.538;6.108;2022-08-21T03:15:30;12.35;;;6.85;;
73650;SDS011;61944;52.538;6.108;2022-08-21T03:17:56;17.95;;;7.45;;
73650;SDS011;61944;52.538;6.108;2022-08-21T03:20:22;21.48;;;7.55;;
73650;SDS011;61944;52.538;6.108;2022-08-21T03:22:52;12.55;;;6.25;;
73650;SDS011;61944;52.538;6.108;2022-08-21T03:25:17;17.80;;;7.00;;
73650;SDS011;61944;52.538;6.108;2022-08-21T03:27:43;13.15;;;7.57;;
73650;SDS011;61944;52.538;6.108;2022-08-21T03:30:08;14.55;;;6.80;;
73650;SDS011;61944;52.538;6.108;2022-08-21T03:32:34;13.07;;;7.65;;
73650;SDS011;61944;52.538;6.108;2022-08-21T03:35:01;15.02;;;7.45;;
73650;SDS011;61944;52.538;6.108;2022-08-21T03:37:27;14.25;;;6.88;;
73650;SDS011;61944;52.538;6.108;2022-08-21T03:39:52;13.52;;;6.72;;
73650;SDS011;61944;52.538;6.108;2022-08-21T03:42:20;10.88;;;6.45;;
73650;SDS011;61944;52.538;6.108;2022-08-21T03:44:45;12.70;;;6.55;;
73650;SDS011;61944;52.538;6.108;2022-08-21T03:47:11;15.38;;;6.85;;
73650;SDS011;61944;52.538;6.108;2022-08-21T03:49:36;13.80;;;7.15;;
73650;SDS011;61944;52.538;6.108;2022-08-21T03:52:02;14.50;;;7.00;;
73650;SDS011;61944;52.538;6.108;2022-08-21T03:54:27;16.05;;;6.50;;
73650;SDS011;61944;52.538;6.108;2022-08-21T03:56:53;17.30;;;6.13;;
73650;SDS011;61944;52.538;6.108;2022-08-21T03:59:18;13.57;;;6.38;;
73650;SDS011;61944;52.538;6.108;2022-08-21T04:01:54;14.32;;;6.63;;
73650;SDS011;61944;52.538;6.108;2022-08-21T04:04:20;11.60;;;6.00;;
73650;SDS011;61944;52.538;6.108;2022-08-21T04:06:45;11.80;;;6.20;;
73650;SDS011;61944;52.538;6.108;2022-08-21T04:09:11;11.48;;;7.05;;
73650;SDS011;61944;52.538;6.108;2022-08-21T04:11:36;15.65;;;6.53;;
73650;SDS011;61944;52.538;6.108;2022-08-21T04:14:02;15.00;;;7.07;;
73650;SDS011;61944;52.538;6.108;2022-08-21T04:16:27;12.07;;;7.25;;
73650;SDS011;61944;52.538;6.108;2022-08-21T04:18:52;15.90;;;6.55;;
73650;SDS011;61944;52.538;6.108;2022-08-21T04:21:17;12.35;;;6.45;;
73650;SDS011;61944;52.538;6.108;2022-08-21T04:23:43;20.08;;;7.28;;
73650;SDS011;61944;52.538;6.108;2022-08-21T04:26:08;14.88;;;6.35;;
73650;SDS011;61944;52.538;6.108;2022-08-21T04:28:33;14.13;;;7.00;;
73650;SDS011;61944;52.538;6.108;2022-08-21T04:31:01;12.07;;;6.75;;
73650;SDS011;61944;52.538;6.108;2022-08-21T04:33:27;16.20;;;7.45;;
73650;SDS011;61944;52.538;6.108;2022-08-21T04:35:52;13.30;;;6.40;;
73650;SDS011;61944;52.538;6.108;2022-08-21T04:38:17;13.07;;;6.85;;
73650;SDS011;61944;52.538;6.108;2022-08-21T04:40:42;17.38;;;8.00;;
73650;SDS011;61944;52.538;6.108;2022-08-21T04:43:08;13.75;;;7.13;;
73650;SDS011;61944;52.538;6.108;2022-08-21T04:45:38;18.00;;;7.15;;
73650;SDS011;61944;52.538;6.108;2022-08-21T04:48:04;32.20;;;8.57;;
73650;SDS011;61944;52.538;6.108;2022-08-21T04:50:34;14.95;;;6.88;;
73650;SDS011;61944;52.538;6.108;2022-08-21T04:53:00;13.30;;;8.40;;
73650;SDS011;61944;52.538;6.108;2022-08-21T04:55:25;21.20;;;8.60;;
73650;SDS011;61944;52.538;6.108;2022-08-21T04:57:52;15.07;;;7.82;;
73650;SDS011;61944;52.538;6.108;2022-08-21T05:00:19;15.68;;;7.68;;
73650;SDS011;61944;52.538;6.108;2022-08-21T05:02:45;16.05;;;7.35;;
73650;SDS011;61944;52.538;6.108;2022-08-21T05:05:12;12.07;;;7.88;;
73650;SDS011;61944;52.538;6.108;2022-08-21T05:07:38;16.05;;;8.10;;
73650;SDS011;61944;52.538;6.108;2022-08-21T05:10:06;16.20;;;7.18;;
73650;SDS011;61944;52.538;6.108;2022-08-21T05:12:33;15.18;;;7.95;;
73650;SDS011;61944;52.538;6.108;2022-08-21T05:14:59;17.20;;;8.77;;
73650;SDS011;61944;52.538;6.108;2022-08-21T05:17:24;15.40;;;7.35;;
73650;SDS011;61944;52.538;6.108;2022-08-21T05:19:50;20.90;;;8.15;;
73650;SDS011;61944;52.538;6.108;2022-08-21T05:22:19;11.65;;;7.28;;
73650;SDS011;61944;52.538;6.108;2022-08-21T05:24:44;17.20;;;7.90;;
73650;SDS011;61944;52.538;6.108;2022-08-21T05:27:09;16.67;;;8.03;;
73650;SDS011;61944;52.538;6.108;2022-08-21T05:29:37;14.45;;;7.85;;
73650;SDS011;61944;52.538;6.108;2022-08-21T05:32:07;16.80;;;8.57;;
73650;SDS011;61944;52.538;6.108;2022-08-21T05:34:33;11.77;;;7.18;;
73650;SDS011;61944;52.538;6.108;2022-08-21T05:36:58;16.15;;;8.45;;
73650;SDS011;61944;52.538;6.108;2022-08-21T05:39:23;17.25;;;7.50;;
73650;SDS011;61944;52.538;6.108;2022-08-21T05:41:48;19.75;;;8.48;;
73650;SDS011;61944;52.538;6.108;2022-08-21T05:44:14;20.77;;;8.23;;
73650;SDS011;61944;52.538;6.108;2022-08-21T05:46:42;17.10;;;8.10;;
73650;SDS011;61944;52.538;6.108;2022-08-21T05:49:07;16.38;;;7.68;;
73650;SDS011;61944;52.538;6.108;2022-08-21T05:51:33;15.95;;;7.95;;
73650;SDS011;61944;52.538;6.108;2022-08-21T05:53:58;12.27;;;7.25;;
73650;SDS011;61944;52.538;6.108;2022-08-21T05:56:23;16.88;;;7.35;;
73650;SDS011;61944;52.538;6.108;2022-08-21T05:58:51;12.47;;;6.93;;
73650;SDS011;61944;52.538;6.108;2022-08-21T06:01:16;18.02;;;8.32;;
73650;SDS011;61944;52.538;6.108;2022-08-21T06:03:42;23.70;;;8.85;;
73650;SDS011;61944;52.538;6.108;2022-08-21T06:06:07;21.15;;;8.25;;
73650;SDS011;61944;52.538;6.108;2022-08-21T06:08:32;20.55;;;8.52;;
73650;SDS011;61944;52.538;6.108;2022-08-21T06:10:59;17.75;;;7.72;;
73650;SDS011;61944;52.538;6.108;2022-08-21T06:13:24;15.80;;;7.75;;
73650;SDS011;61944;52.538;6.108;2022-08-21T06:15:50;19.75;;;8.70;;
73650;SDS011;61944;52.538;6.108;2022-08-21T06:18:18;19.95;;;7.35;;
73650;SDS011;61944;52.538;6.108;2022-08-21T06:20:43;16.67;;;6.32;;
73650;SDS011;61944;52.538;6.108;2022-08-21T06:23:09;15.30;;;7.43;;
73650;SDS011;61944;52.538;6.108;2022-08-21T06:25:34;17.75;;;6.38;;
73650;SDS011;61944;52.538;6.108;2022-08-21T06:28:00;15.38;;;6.57;;
73650;SDS011;61944;52.538;6.108;2022-08-21T06:30:26;16.67;;;7.22;;
73650;SDS011;61944;52.538;6.108;2022-08-21T06:32:51;22.17;;;7.88;;
73650;SDS011;61944;52.538;6.108;2022-08-21T06:35:16;12.20;;;6.53;;
73650;SDS011;61944;52.538;6.108;2022-08-21T06:37:41;16.88;;;6.82;;
73650;SDS011;61944;52.538;6.108;2022-08-21T06:40:07;15.80;;;6.95;;
73650;SDS011;61944;52.538;6.108;2022-08-21T06:42:32;17.65;;;7.35;;
73650;SDS011;61944;52.538;6.108;2022-08-21T06:44:57;15.95;;;6.88;;
73650;SDS011;61944;52.538;6.108;2022-08-21T06:47:23;18.13;;;7.03;;
73650;SDS011;61944;52.538;6.108;2022-08-21T06:49:48;22.70;;;6.85;;
73650;SDS011;61944;52.538;6.108;2022-08-21T06:52:13;21.10;;;7.60;;
73650;SDS011;61944;52.538;6.108;2022-08-21T06:54:39;24.05;;;7.05;;
73650;SDS011;61944;52.538;6.108;2022-08-21T06:57:05;17.67;;;7.13;;
73650;SDS011;61944;52.538;6.108;2022-08-21T06:59:31;21.48;;;6.90;;
73650;SDS011;61944;52.538;6.108;2022-08-21T07:01:56;16.08;;;7.25;;
73650;SDS011;61944;52.538;6.108;2022-08-21T07:04:21;16.75;;;5.97;;
73650;SDS011;61944;52.538;6.108;2022-08-21T07:06:47;15.43;;;7.53;;
73650;SDS011;61944;52.538;6.108;2022-08-21T07:09:12;32.30;;;8.03;;
73650;SDS011;61944;52.538;6.108;2022-08-21T07:11:37;15.48;;;5.82;;
73650;SDS011;61944;52.538;6.108;2022-08-21T07:14:03;19.60;;;8.02;;
73650;SDS011;61944;52.538;6.108;2022-08-21T07:16:28;22.75;;;6.82;;
73650;SDS011;61944;52.538;6.108;2022-08-21T07:18:53;18.35;;;6.57;;
73650;SDS011;61944;52.538;6.108;2022-08-21T07:21:19;19.38;;;6.18;;
73650;SDS011;61944;52.538;6.108;2022-08-21T07:23:46;19.17;;;7.15;;
73650;SDS011;61944;52.538;6.108;2022-08-21T07:26:12;22.13;;;7.03;;
73650;SDS011;61944;52.538;6.108;2022-08-21T07:28:37;18.88;;;6.10;;
73650;SDS011;61944;52.538;6.108;2022-08-21T07:31:03;16.02;;;5.80;;
73650;SDS011;61944;52.538;6.108;2022-08-21T07:33:29;17.20;;;5.85;;
73650;SDS011;61944;52.538;6.108;2022-08-21T07:35:54;21.08;;;6.55;;
73650;SDS011;61944;52.538;6.108;2022-08-21T07:38:20;22.88;;;6.93;;
73650;SDS011;61944;52.538;6.108;2022-08-21T07:40:46;17.60;;;4.90;;
73650;SDS011;61944;52.538;6.108;2022-08-21T07:43:11;19.73;;;5.60;;
73650;SDS011;61944;52.538;6.108;2022-08-21T07:45:37;12.88;;;4.80;;
73650;SDS011;61944;52.538;6.108;2022-08-21T07:48:03;20.13;;;4.93;;
73650;SDS011;61944;52.538;6.108;2022-08-21T07:50:28;18.98;;;5.13;;
73650;SDS011;61944;52.538;6.108;2022-08-21T07:52:53;12.52;;;4.35;;
73650;SDS011;61944;52.538;6.108;2022-08-21T07:55:19;13.13;;;4.13;;
73650;SDS011;61944;52.538;6.108;2022-08-21T07:57:45;19.63;;;5.80;;
73650;SDS011;61944;52.538;6.108;2022-08-21T08:00:12;18.98;;;4.80;;
73650;SDS011;61944;52.538;6.108;2022-08-21T08:02:37;12.60;;;3.88;;
73650;SDS011;61944;52.538;6.108;2022-08-21T08:05:03;11.23;;;3.53;;
73650;SDS011;61944;52.538;6.108;2022-08-21T08:07:33;13.50;;;3.72;;
73650;SDS011;61944;52.538;6.108;2022-08-21T08:10:03;14.45;;;3.97;;
73650;SDS011;61944;52.538;6.108;2022-08-21T08:12:28;7.60;;;3.53;;
73650;SDS011;61944;52.538;6.108;2022-08-21T08:14:54;13.82;;;4.07;;
73650;SDS011;61944;52.538;6.108;2022-08-21T08:17:19;15.50;;;4.05;;
73650;SDS011;61944;52.538;6.108;2022-08-21T08:19:48;12.15;;;4.75;;
73650;SDS011;61944;52.538;6.108;2022-08-21T08:22:14;11.88;;;3.85;;
73650;SDS011;61944;52.538;6.108;2022-08-21T08:24:40;11.73;;;3.83;;
73650;SDS011;61944;52.538;6.108;2022-08-21T08:27:05;17.95;;;4.32;;
73650;SDS011;61944;52.538;6.108;2022-08-21T08:29:30;12.63;;;4.32;;
73650;SDS011;61944;52.538;6.108;2022-08-21T08:31:55;14.73;;;4.70;;
73650;SDS011;61944;52.538;6.108;2022-08-21T08:34:21;18.80;;;4.35;;
73650;SDS011;61944;52.538;6.108;2022-08-21T08:36:47;17.65;;;5.95;;
73650;SDS011;61944;52.538;6.108;2022-08-21T08:39:13;11.15;;;4.65;;
73650;SDS011;61944;52.538;6.108;2022-08-21T08:41:38;18.30;;;5.72;;
73650;SDS011;61944;52.538;6.108;2022-08-21T08:44:04;24.33;;;5.15;;
73650;SDS011;61944;52.538;6.108;2022-08-21T08:49:00;23.27;;;6.70;;
73650;SDS011;61944;52.538;6.108;2022-08-21T08:54:01;24.60;;;5.85;;
73650;SDS011;61944;52.538;6.108;2022-08-21T08:56:32;18.65;;;5.72;;
73650;SDS011;61944;52.538;6.108;2022-08-21T08:59:02;18.38;;;5.07;;
73650;SDS011;61944;52.538;6.108;2022-08-21T09:01:32;16.70;;;6.07;;
73650;SDS011;61944;52.538;6.108;2022-08-21T09:04:00;20.05;;;5.25;;
73650;SDS011;61944;52.538;6.108;2022-08-21T09:14:47;17.75;;;6.30;;
73650;SDS011;61944;52.538;6.108;2022-08-21T09:22:19;19.50;;;7.47;;
73650;SDS011;61944;52.538;6.108;2022-08-21T09:25:06;27.98;;;8.48;;
73650;SDS011;61944;52.538;6.108;2022-08-21T09:27:34;29.55;;;7.57;;
73650;SDS011;61944;52.538;6.108;2022-08-21T09:30:00;21.83;;;7.80;;
73650;SDS011;61944;52.538;6.108;2022-08-21T09:32:28;23.58;;;7.35;;
73650;SDS011;61944;52.538;6.108;2022-08-21T09:35:15;27.58;;;8.13;;
73650;SDS011;61944;52.538;6.108;2022-08-21T09:37:50;23.02;;;6.45;;
73650;SDS011;61944;52.538;6.108;2022-08-21T09:40:19;23.13;;;6.85;;
73650;SDS011;61944;52.538;6.108;2022-08-21T09:42:57;19.50;;;6.60;;
73650;SDS011;61944;52.538;6.108;2022-08-21T09:45:27;27.52;;;6.47;;
73650;SDS011;61944;52.538;6.108;2022-08-21T09:47:52;34.65;;;7.20;;
73650;SDS011;61944;52.538;6.108;2022-08-21T09:50:19;19.85;;;4.63;;
73650;SDS011;61944;52.538;6.108;2022-08-21T09:52:49;16.00;;;4.95;;
73650;SDS011;61944;52.538;6.108;2022-08-21T09:55:20;28.48;;;6.72;;
73650;SDS011;61944;52.538;6.108;2022-08-21T09:58:04;23.70;;;5.40;;
73650;SDS011;61944;52.538;6.108;2022-08-21T10:00:31;21.95;;;6.05;;
73650;SDS011;61944;52.538;6.108;2022-08-21T10:03:16;20.05;;;4.65;;
73650;SDS011;61944;52.538;6.108;2022-08-21T10:08:30;26.90;;;6.18;;
73650;SDS011;61944;52.538;6.108;2022-08-21T10:10:57;22.30;;;5.53;;
73650;SDS011;61944;52.538;6.108;2022-08-21T10:13:32;21.08;;;5.32;;
73650;SDS011;61944;52.538;6.108;2022-08-21T10:18:41;27.17;;;5.00;;
73650;SDS011;61944;52.538;6.108;2022-08-21T10:23:39;18.83;;;5.27;;
73650;SDS011;61944;52.538;6.108;2022-08-21T10:31:21;20.90;;;6.15;;
73650;SDS011;61944;52.538;6.108;2022-08-21T10:39:25;17.80;;;5.43;;
73650;SDS011;61944;52.538;6.108;2022-08-21T10:54:46;17.50;;;5.67;;
73650;SDS011;61944;52.538;6.108;2022-08-21T10:57:22;16.70;;;4.20;;
73650;SDS011;61944;52.538;6.108;2022-08-21T10:59:51;20.48;;;4.80;;
73650;SDS011;61944;52.538;6.108;2022-08-21T11:02:26;10.13;;;4.45;;
73650;SDS011;61944;52.538;6.108;2022-08-21T11:04:54;8.48;;;3.50;;
73650;SDS011;61944;52.538;6.108;2022-08-21T11:09:47;15.82;;;4.43;;
73650;SDS011;61944;52.538;6.108;2022-08-21T11:12:22;19.25;;;4.80;;
73650;SDS011;61944;52.538;6.108;2022-08-21T11:14:56;18.88;;;4.65;;
73650;SDS011;61944;52.538;6.108;2022-08-21T11:17:24;15.75;;;4.93;;
73650;SDS011;61944;52.538;6.108;2022-08-21T11:20:05;17.25;;;4.82;;
73650;SDS011;61944;52.538;6.108;2022-08-21T11:22:54;16.90;;;4.50;;
73650;SDS011;61944;52.538;6.108;2022-08-21T11:25:23;9.93;;;3.95;;
73650;SDS011;61944;52.538;6.108;2022-08-21T11:30:16;14.40;;;4.53;;
73650;SDS011;61944;52.538;6.108;2022-08-21T11:32:47;14.68;;;3.95;;
73650;SDS011;61944;52.538;6.108;2022-08-21T11:37:47;13.43;;;3.80;;
73650;SDS011;61944;52.538;6.108;2022-08-21T11:40:23;16.20;;;4.70;;
73650;SDS011;61944;52.538;6.108;2022-08-21T11:50:16;14.68;;;4.50;;
73650;SDS011;61944;52.538;6.108;2022-08-21T11:52:47;9.88;;;4.00;;
73650;SDS011;61944;52.538;6.108;2022-08-21T11:57:55;12.95;;;3.78;;
73650;SDS011;61944;52.538;6.108;2022-08-21T12:00:27;15.43;;;6.10;;
73650;SDS011;61944;52.538;6.108;2022-08-21T12:02:58;21.85;;;5.13;;
73650;SDS011;61944;52.538;6.108;2022-08-21T12:05:29;24.50;;;4.80;;
73650;SDS011;61944;52.538;6.108;2022-08-21T12:08:04;16.02;;;4.88;;
73650;SDS011;61944;52.538;6.108;2022-08-21T12:10:32;9.70;;;3.95;;
73650;SDS011;61944;52.538;6.108;2022-08-21T12:13:05;16.90;;;4.95;;
73650;SDS011;61944;52.538;6.108;2022-08-21T12:15:36;18.05;;;4.20;;
73650;SDS011;61944;52.538;6.108;2022-08-21T12:18:06;10.90;;;4.72;;
73650;SDS011;61944;52.538;6.108;2022-08-21T12:20:44;16.07;;;4.93;;
73650;SDS011;61944;52.538;6.108;2022-08-21T12:23:25;9.68;;;3.63;;
73650;SDS011;61944;52.538;6.108;2022-08-21T12:26:02;18.48;;;4.78;;
73650;SDS011;61944;52.538;6.108;2022-08-21T12:28:28;13.88;;;5.07;;
73650;SDS011;61944;52.538;6.108;2022-08-21T12:30:55;17.30;;;4.53;;
73650;SDS011;61944;52.538;6.108;2022-08-21T12:33:37;18.23;;;4.55;;
73650;SDS011;61944;52.538;6.108;2022-08-21T12:36:16;17.38;;;5.28;;
73650;SDS011;61944;52.538;6.108;2022-08-21T12:38:50;12.20;;;5.22;;
73650;SDS011;61944;52.538;6.108;2022-08-21T12:41:20;20.38;;;5.32;;
73650;SDS011;61944;52.538;6.108;2022-08-21T12:43:51;10.60;;;4.90;;
73650;SDS011;61944;52.538;6.108;2022-08-21T12:46:29;13.40;;;5.68;;
73650;SDS011;61944;52.538;6.108;2022-08-21T12:48:57;11.15;;;6.15;;
73650;SDS011;61944;52.538;6.108;2022-08-21T12:51:33;20.33;;;6.00;;
73650;SDS011;61944;52.538;6.108;2022-08-21T12:54:01;15.15;;;5.57;;
73650;SDS011;61944;52.538;6.108;2022-08-21T12:56:28;21.58;;;5.70;;
73650;SDS011;61944;52.538;6.108;2022-08-21T12:59:04;18.35;;;6.13;;
73650;SDS011;61944;52.538;6.108;2022-08-21T13:03:57;16.13;;;6.13;;
73650;SDS011;61944;52.538;6.108;2022-08-21T13:06:23;20.25;;;7.18;;
73650;SDS011;61944;52.538;6.108;2022-08-21T13:08:53;25.33;;;7.03;;
73650;SDS011;61944;52.538;6.108;2022-08-21T13:11:20;21.65;;;7.35;;
73650;SDS011;61944;52.538;6.108;2022-08-21T13:13:50;17.58;;;6.53;;
73650;SDS011;61944;52.538;6.108;2022-08-21T13:16:26;24.48;;;7.75;;
73650;SDS011;61944;52.538;6.108;2022-08-21T13:18:56;19.67;;;6.53;;
73650;SDS011;61944;52.538;6.108;2022-08-21T13:21:26;15.05;;;5.57;;
73650;SDS011;61944;52.538;6.108;2022-08-21T13:24:06;13.75;;;5.10;;
73650;SDS011;61944;52.538;6.108;2022-08-21T13:26:31;15.70;;;5.75;;
73650;SDS011;61944;52.538;6.108;2022-08-21T13:28:57;17.33;;;5.93;;
73650;SDS011;61944;52.538;6.108;2022-08-21T13:31:31;14.88;;;5.80;;
73650;SDS011;61944;52.538;6.108;2022-08-21T13:33:56;21.58;;;7.88;;
73650;SDS011;61944;52.538;6.108;2022-08-21T13:36:32;18.50;;;5.97;;
73650;SDS011;61944;52.538;6.108;2022-08-21T13:38:59;13.30;;;5.63;;
73650;SDS011;61944;52.538;6.108;2022-08-21T13:41:29;11.77;;;5.47;;
73650;SDS011;61944;52.538;6.108;2022-08-21T13:43:59;16.08;;;5.63;;
73650;SDS011;61944;52.538;6.108;2022-08-21T13:46:35;12.27;;;5.15;;
73650;SDS011;61944;52.538;6.108;2022-08-21T13:49:01;20.15;;;6.80;;
73650;SDS011;61944;52.538;6.108;2022-08-21T13:51:28;15.45;;;6.68;;
73650;SDS011;61944;52.538;6.108;2022-08-21T13:53:56;19.90;;;6.43;;
73650;SDS011;61944;52.538;6.108;2022-08-21T13:58:47;13.80;;;5.80;;
73650;SDS011;61944;52.538;6.108;2022-08-21T14:01:30;17.00;;;6.40;;
73650;SDS011;61944;52.538;6.108;2022-08-21T14:04:01;19.90;;;6.43;;
73650;SDS011;61944;52.538;6.108;2022-08-21T14:06:27;11.95;;;5.40;;
73650;SDS011;61944;52.538;6.108;2022-08-21T14:09:00;16.20;;;5.47;;
73650;SDS011;61944;52.538;6.108;2022-08-21T14:11:32;13.75;;;5.22;;
73650;SDS011;61944;52.538;6.108;2022-08-21T14:14:02;19.27;;;5.78;;
73650;SDS011;61944;52.538;6.108;2022-08-21T14:16:41;16.08;;;5.25;;
73650;SDS011;61944;52.538;6.108;2022-08-21T14:19:10;16.13;;;5.53;;
73650;SDS011;61944;52.538;6.108;2022-08-21T14:21:37;13.40;;;5.63;;
73650;SDS011;61944;52.538;6.108;2022-08-21T14:24:08;14.20;;;4.93;;
73650;SDS011;61944;52.538;6.108;2022-08-21T14:26:34;21.20;;;5.80;;
73650;SDS011;61944;52.538;6.108;2022-08-21T14:29:01;14.13;;;5.40;;
73650;SDS011;61944;52.538;6.108;2022-08-21T14:31:29;13.57;;;5.20;;
73650;SDS011;61944;52.538;6.108;2022-08-21T14:33:55;16.13;;;4.28;;
73650;SDS011;61944;52.538;6.108;2022-08-21T14:36:20;13.80;;;4.25;;
73650;SDS011;61944;52.538;6.108;2022-08-21T14:38:46;12.45;;;5.50;;
73650;SDS011;61944;52.538;6.108;2022-08-21T14:43:36;22.63;;;5.47;;
73650;SDS011;61944;52.538;6.108;2022-08-21T14:46:05;21.00;;;5.75;;
73650;SDS011;61944;52.538;6.108;2022-08-21T14:48:31;10.90;;;4.22;;
73650;SDS011;61944;52.538;6.108;2022-08-21T14:50:56;13.48;;;4.30;;
73650;SDS011;61944;52.538;6.108;2022-08-21T14:53:21;12.95;;;4.45;;
73650;SDS011;61944;52.538;6.108;2022-08-21T14:55:47;15.93;;;4.70;;
73650;SDS011;61944;52.538;6.108;2022-08-21T14:58:31;8.23;;;3.85;;
73650;SDS011;61944;52.538;6.108;2022-08-21T15:00:56;11.85;;;4.03;;
73650;SDS011;61944;52.538;6.108;2022-08-21T15:03:23;12.32;;;4.00;;
73650;SDS011;61944;52.538;6.108;2022-08-21T15:05:48;11.88;;;4.15;;
73650;SDS011;61944;52.538;6.108;2022-08-21T15:08:14;14.93;;;4.47;;
73650;SDS011;61944;52.538;6.108;2022-08-21T15:10:43;9.95;;;3.35;;
73650;SDS011;61944;52.538;6.108;2022-08-21T15:13:08;10.32;;;4.18;;
73650;SDS011;61944;52.538;6.108;2022-08-21T15:15:36;11.25;;;3.83;;
73650;SDS011;61944;52.538;6.108;2022-08-21T15:18:03;15.45;;;4.35;;
73650;SDS011;61944;52.538;6.108;2022-08-21T15:20:29;11.40;;;3.78;;
73650;SDS011;61944;52.538;6.108;2022-08-21T15:22:54;9.32;;;3.45;;
73650;SDS011;61944;52.538;6.108;2022-08-21T15:25:22;11.35;;;4.88;;
73650;SDS011;61944;52.538;6.108;2022-08-21T15:27:47;15.07;;;3.95;;
73650;SDS011;61944;52.538;6.108;2022-08-21T15:30:13;10.82;;;4.43;;
73650;SDS011;61944;52.538;6.108;2022-08-21T15:32:38;11.10;;;4.53;;
73650;SDS011;61944;52.538;6.108;2022-08-21T15:35:04;16.70;;;5.82;;
73650;SDS011;61944;52.538;6.108;2022-08-21T15:37:29;10.20;;;3.78;;
73650;SDS011;61944;52.538;6.108;2022-08-21T15:39:55;20.83;;;4.00;;
73650;SDS011;61944;52.538;6.108;2022-08-21T15:42:23;12.95;;;5.32;;
73650;SDS011;61944;52.538;6.108;2022-08-21T15:44:54;12.60;;;3.90;;
73650;SDS011;61944;52.538;6.108;2022-08-21T15:47:21;10.30;;;3.33;;
73650;SDS011;61944;52.538;6.108;2022-08-21T15:49:50;12.00;;;3.83;;
73650;SDS011;61944;52.538;6.108;2022-08-21T15:52:15;8.25;;;3.17;;
73650;SDS011;61944;52.538;6.108;2022-08-21T15:54:41;12.20;;;3.47;;